East Dennis, MA (02641)

1:04 AM EDT on July 26, 2016 (GMT -0400)
golf course | | Change Station

Elev 79 ft 41.73 °N, 70.16 °W | Updated 40 minutes ago

Clear
Clear
75.0 °F
Feels Like 75 °F
N
3.7
Wind Variable Wind from SW

Today
High -- | Low -- °F
--% Chance of Precip.
Yesterday
High -- | Low -- °F
Precip. -- in
Pressure 29.78 in
Visibility 10.0 miles
Clouds Clear
Heat Index 75 °F
Dew Point 70 °F
Humidity 84%
Rainfall 0.00 in
Snow Depth Not available.
5:29 AM 8:04 PM
Waning Gibbous, 58% visible
METAR KHYA 260456Z AUTO 23010KT 10SM CLR 24/22 A2978 RMK AO2 SLP084 T02440217 403060172
Pressure 29.78 in
Visibility 10.0 miles
Clouds Clear
Heat Index 75 °F
Dew Point 70 °F
Humidity 84%
Rainfall 0.00 in
Snow Depth Not available.
5:29 AM 8:04 PM
Waning Gibbous, 58% visible
METAR KHYA 260456Z AUTO 23010KT 10SM CLR 24/22 A2978 RMK AO2 SLP084 T02440217 403060172

10-Day Weather Forecast

Almanac

Astronomy

Jul. 26, 2016 Rise Set
Actual Time
Civil Twilight
Nautical Twilight
Astronomical Twilight
Moon
Length of Visible Light
Length of Day
Tomorrow will be .
, % of the Moon is Illuminated

Today's Extremes

State Highs State Lows

Community

WunderPhotos

Upload Photos

1,927,538 photos uploaded!

WunderBlog® & News

Nearby

Air Quality

  Air Quality AQ Index Pollutant
Not available.

Snow Depth

Station Depth Elevation

Earthquake Activity

City Distance Mag. Time & Date
Minimum magnitude displayed is 2.5.

Coastal Water Temperatures

Place Temperature

Stations

Nearby Weather Stations

Station Location Temp. Windchill Dew Point Humidity Wind Precip. Elev Updated Type
                   

Watches & Warnings

There are currently no watches in effect.